sensor_id;sensor_type;location;lat;lon;timestamp;P1;durP1;ratioP1;P2;durP2;ratioP2
71637;SDS011;59485;43.542;-5.676;2022-11-15T00:00:51;13.18;;;6.47;;
71637;SDS011;59485;43.542;-5.676;2022-11-15T00:03:18;11.18;;;5.28;;
71637;SDS011;59485;43.542;-5.676;2022-11-15T00:05:45;10.27;;;4.50;;
71637;SDS011;59485;43.542;-5.676;2022-11-15T00:08:11;10.77;;;4.17;;
71637;SDS011;59485;43.542;-5.676;2022-11-15T00:10:37;9.52;;;4.90;;
71637;SDS011;59485;43.542;-5.676;2022-11-15T00:13:09;14.43;;;5.20;;
71637;SDS011;59485;43.542;-5.676;2022-11-15T00:15:40;14.25;;;4.40;;
71637;SDS011;59485;43.542;-5.676;2022-11-15T00:18:09;11.70;;;4.13;;
71637;SDS011;59485;43.542;-5.676;2022-11-15T00:20:40;10.40;;;3.78;;
71637;SDS011;59485;43.542;-5.676;2022-11-15T00:23:06;11.30;;;3.23;;
71637;SDS011;59485;43.542;-5.676;2022-11-15T00:25:32;8.02;;;2.30;;
71637;SDS011;59485;43.542;-5.676;2022-11-15T00:27:58;8.25;;;2.65;;
71637;SDS011;59485;43.542;-5.676;2022-11-15T00:30:25;7.63;;;2.45;;
71637;SDS011;59485;43.542;-5.676;2022-11-15T00:32:51;7.63;;;2.37;;
71637;SDS011;59485;43.542;-5.676;2022-11-15T00:35:17;5.28;;;2.28;;
71637;SDS011;59485;43.542;-5.676;2022-11-15T00:37:43;8.73;;;3.00;;
71637;SDS011;59485;43.542;-5.676;2022-11-15T00:40:09;8.32;;;2.42;;
71637;SDS011;59485;43.542;-5.676;2022-11-15T00:42:35;8.95;;;3.10;;
71637;SDS011;59485;43.542;-5.676;2022-11-15T00:45:01;7.97;;;2.80;;
71637;SDS011;59485;43.542;-5.676;2022-11-15T00:47:27;9.40;;;3.77;;
71637;SDS011;59485;43.542;-5.676;2022-11-15T00:49:52;7.95;;;2.75;;
71637;SDS011;59485;43.542;-5.676;2022-11-15T00:52:18;9.63;;;3.03;;
71637;SDS011;59485;43.542;-5.676;2022-11-15T00:54:43;7.20;;;2.08;;
71637;SDS011;59485;43.542;-5.676;2022-11-15T00:57:09;7.93;;;2.53;;
71637;SDS011;59485;43.542;-5.676;2022-11-15T00:59:36;7.32;;;2.47;;
71637;SDS011;59485;43.542;-5.676;2022-11-15T01:02:01;8.93;;;3.10;;
71637;SDS011;59485;43.542;-5.676;2022-11-15T01:04:27;9.02;;;3.10;;
71637;SDS011;59485;43.542;-5.676;2022-11-15T01:06:53;11.27;;;4.57;;
71637;SDS011;59485;43.542;-5.676;2022-11-15T01:09:19;10.32;;;3.60;;
71637;SDS011;59485;43.542;-5.676;2022-11-15T01:11:44;10.97;;;3.77;;
71637;SDS011;59485;43.542;-5.676;2022-11-15T01:14:10;11.53;;;5.50;;
71637;SDS011;59485;43.542;-5.676;2022-11-15T01:16:35;11.30;;;5.03;;
71637;SDS011;59485;43.542;-5.676;2022-11-15T01:19:01;9.48;;;5.03;;
71637;SDS011;59485;43.542;-5.676;2022-11-15T01:21:27;11.07;;;4.70;;
71637;SDS011;59485;43.542;-5.676;2022-11-15T01:23:53;12.50;;;4.67;;
71637;SDS011;59485;43.542;-5.676;2022-11-15T01:26:20;8.75;;;4.50;;
71637;SDS011;59485;43.542;-5.676;2022-11-15T01:28:46;11.77;;;4.43;;
71637;SDS011;59485;43.542;-5.676;2022-11-15T01:31:13;8.50;;;3.87;;
71637;SDS011;59485;43.542;-5.676;2022-11-15T01:33:40;9.23;;;3.28;;
71637;SDS011;59485;43.542;-5.676;2022-11-15T01:36:06;10.88;;;3.47;;
71637;SDS011;59485;43.542;-5.676;2022-11-15T01:38:35;10.27;;;3.50;;
71637;SDS011;59485;43.542;-5.676;2022-11-15T01:41:00;9.60;;;2.97;;
71637;SDS011;59485;43.542;-5.676;2022-11-15T01:43:30;7.57;;;3.00;;
71637;SDS011;59485;43.542;-5.676;2022-11-15T01:46:06;7.78;;;3.10;;
71637;SDS011;59485;43.542;-5.676;2022-11-15T01:48:51;9.13;;;4.03;;
71637;SDS011;59485;43.542;-5.676;2022-11-15T01:51:19;9.63;;;3.42;;
71637;SDS011;59485;43.542;-5.676;2022-11-15T01:53:51;8.45;;;3.17;;
71637;SDS011;59485;43.542;-5.676;2022-11-15T01:56:21;9.47;;;3.43;;
71637;SDS011;59485;43.542;-5.676;2022-11-15T01:58:50;7.68;;;3.47;;
71637;SDS011;59485;43.542;-5.676;2022-11-15T02:01:18;9.68;;;3.30;;
71637;SDS011;59485;43.542;-5.676;2022-11-15T02:04:01;7.28;;;2.83;;
71637;SDS011;59485;43.542;-5.676;2022-11-15T02:06:33;6.20;;;3.05;;
71637;SDS011;59485;43.542;-5.676;2022-11-15T02:09:00;9.43;;;3.43;;
71637;SDS011;59485;43.542;-5.676;2022-11-15T02:11:25;8.30;;;3.15;;
71637;SDS011;59485;43.542;-5.676;2022-11-15T02:13:51;6.17;;;2.97;;
71637;SDS011;59485;43.542;-5.676;2022-11-15T02:18:57;8.45;;;3.08;;
71637;SDS011;59485;43.542;-5.676;2022-11-15T02:21:36;9.27;;;3.13;;
71637;SDS011;59485;43.542;-5.676;2022-11-15T02:27:16;9.07;;;3.38;;
71637;SDS011;59485;43.542;-5.676;2022-11-15T02:32:43;9.63;;;3.10;;
71637;SDS011;59485;43.542;-5.676;2022-11-15T02:35:16;8.20;;;3.17;;
71637;SDS011;59485;43.542;-5.676;2022-11-15T02:37:49;9.67;;;3.67;;
71637;SDS011;59485;43.542;-5.676;2022-11-15T02:40:34;11.88;;;5.63;;
71637;SDS011;59485;43.542;-5.676;2022-11-15T02:43:09;14.07;;;5.22;;
71637;SDS011;59485;43.542;-5.676;2022-11-15T02:46:39;9.70;;;3.97;;
71637;SDS011;59485;43.542;-5.676;2022-11-15T02:49:07;11.70;;;4.50;;
71637;SDS011;59485;43.542;-5.676;2022-11-15T02:51:34;9.40;;;3.90;;
71637;SDS011;59485;43.542;-5.676;2022-11-15T02:54:00;9.07;;;4.20;;
71637;SDS011;59485;43.542;-5.676;2022-11-15T02:56:25;15.50;;;5.10;;
71637;SDS011;59485;43.542;-5.676;2022-11-15T03:04:34;16.48;;;4.70;;
71637;SDS011;59485;43.542;-5.676;2022-11-15T03:07:14;12.70;;;4.18;;
71637;SDS011;59485;43.542;-5.676;2022-11-15T03:12:44;14.90;;;4.47;;
71637;SDS011;59485;43.542;-5.676;2022-11-15T03:18:10;12.40;;;3.63;;
71637;SDS011;59485;43.542;-5.676;2022-11-15T03:20:44;13.80;;;3.75;;
71637;SDS011;59485;43.542;-5.676;2022-11-15T03:23:11;10.95;;;3.97;;
71637;SDS011;59485;43.542;-5.676;2022-11-15T03:25:40;11.63;;;4.03;;
71637;SDS011;59485;43.542;-5.676;2022-11-15T03:28:09;8.93;;;4.10;;
71637;SDS011;59485;43.542;-5.676;2022-11-15T03:30:37;13.05;;;4.28;;
71637;SDS011;59485;43.542;-5.676;2022-11-15T03:33:05;12.57;;;4.15;;
71637;SDS011;59485;43.542;-5.676;2022-11-15T03:35:33;16.90;;;6.32;;
71637;SDS011;59485;43.542;-5.676;2022-11-15T03:41:00;38.27;;;10.47;;
71637;SDS011;59485;43.542;-5.676;2022-11-15T03:45:56;15.77;;;5.73;;
71637;SDS011;59485;43.542;-5.676;2022-11-15T03:48:36;20.80;;;5.90;;
71637;SDS011;59485;43.542;-5.676;2022-11-15T03:51:06;17.90;;;5.43;;
71637;SDS011;59485;43.542;-5.676;2022-11-15T03:53:32;13.38;;;4.72;;
71637;SDS011;59485;43.542;-5.676;2022-11-15T03:55:57;12.37;;;4.20;;
71637;SDS011;59485;43.542;-5.676;2022-11-15T03:58:23;14.30;;;5.53;;
71637;SDS011;59485;43.542;-5.676;2022-11-15T04:00:48;20.83;;;6.30;;
71637;SDS011;59485;43.542;-5.676;2022-11-15T04:03:14;18.80;;;5.90;;
71637;SDS011;59485;43.542;-5.676;2022-11-15T04:05:40;15.27;;;5.03;;
71637;SDS011;59485;43.542;-5.676;2022-11-15T04:08:05;13.80;;;4.80;;
71637;SDS011;59485;43.542;-5.676;2022-11-15T04:10:31;12.23;;;4.33;;
71637;SDS011;59485;43.542;-5.676;2022-11-15T04:12:56;10.93;;;4.50;;
71637;SDS011;59485;43.542;-5.676;2022-11-15T04:15:22;16.50;;;5.72;;
71637;SDS011;59485;43.542;-5.676;2022-11-15T04:20:22;11.60;;;5.03;;
71637;SDS011;59485;43.542;-5.676;2022-11-15T04:23:09;15.95;;;4.97;;
71637;SDS011;59485;43.542;-5.676;2022-11-15T04:25:56;16.35;;;5.30;;
71637;SDS011;59485;43.542;-5.676;2022-11-15T04:28:25;14.43;;;5.57;;
71637;SDS011;59485;43.542;-5.676;2022-11-15T04:30:50;21.77;;;7.47;;
71637;SDS011;59485;43.542;-5.676;2022-11-15T04:33:16;17.92;;;6.40;;
71637;SDS011;59485;43.542;-5.676;2022-11-15T04:35:42;17.60;;;6.03;;
71637;SDS011;59485;43.542;-5.676;2022-11-15T04:38:08;13.52;;;5.20;;
71637;SDS011;59485;43.542;-5.676;2022-11-15T04:40:36;14.60;;;5.20;;
71637;SDS011;59485;43.542;-5.676;2022-11-15T04:43:03;12.45;;;4.78;;
71637;SDS011;59485;43.542;-5.676;2022-11-15T04:45:29;11.57;;;3.00;;
71637;SDS011;59485;43.542;-5.676;2022-11-15T04:47:55;12.23;;;3.72;;
71637;SDS011;59485;43.542;-5.676;2022-11-15T04:50:20;8.20;;;3.23;;
71637;SDS011;59485;43.542;-5.676;2022-11-15T04:52:51;9.38;;;3.42;;
71637;SDS011;59485;43.542;-5.676;2022-11-15T04:55:18;9.82;;;3.58;;
71637;SDS011;59485;43.542;-5.676;2022-11-15T04:57:44;20.73;;;6.57;;
71637;SDS011;59485;43.542;-5.676;2022-11-15T05:00:11;28.80;;;9.30;;
71637;SDS011;59485;43.542;-5.676;2022-11-15T05:02:38;26.30;;;7.82;;
71637;SDS011;59485;43.542;-5.676;2022-11-15T05:05:23;30.77;;;7.60;;
71637;SDS011;59485;43.542;-5.676;2022-11-15T05:07:49;29.80;;;6.70;;
71637;SDS011;59485;43.542;-5.676;2022-11-15T05:10:14;22.92;;;6.40;;
71637;SDS011;59485;43.542;-5.676;2022-11-15T05:12:40;32.27;;;7.50;;
71637;SDS011;59485;43.542;-5.676;2022-11-15T05:15:05;20.37;;;6.03;;
71637;SDS011;59485;43.542;-5.676;2022-11-15T05:17:31;28.17;;;8.52;;
71637;SDS011;59485;43.542;-5.676;2022-11-15T05:19:57;13.87;;;4.93;;
71637;SDS011;59485;43.542;-5.676;2022-11-15T05:22:22;20.23;;;6.00;;
71637;SDS011;59485;43.542;-5.676;2022-11-15T05:24:48;15.43;;;4.45;;
71637;SDS011;59485;43.542;-5.676;2022-11-15T05:27:13;14.27;;;4.37;;
71637;SDS011;59485;43.542;-5.676;2022-11-15T05:29:39;7.37;;;2.30;;
71637;SDS011;59485;43.542;-5.676;2022-11-15T05:32:05;12.27;;;3.10;;
71637;SDS011;59485;43.542;-5.676;2022-11-15T05:34:32;11.82;;;2.95;;
71637;SDS011;59485;43.542;-5.676;2022-11-15T05:36:58;13.43;;;3.50;;
71637;SDS011;59485;43.542;-5.676;2022-11-15T05:39:24;13.98;;;3.83;;
71637;SDS011;59485;43.542;-5.676;2022-11-15T05:41:55;16.50;;;3.13;;
71637;SDS011;59485;43.542;-5.676;2022-11-15T05:44:25;9.82;;;2.42;;
71637;SDS011;59485;43.542;-5.676;2022-11-15T05:46:51;8.15;;;1.40;;
71637;SDS011;59485;43.542;-5.676;2022-11-15T05:49:21;6.63;;;1.90;;
71637;SDS011;59485;43.542;-5.676;2022-11-15T05:51:51;5.55;;;1.88;;
71637;SDS011;59485;43.542;-5.676;2022-11-15T05:54:18;7.30;;;1.87;;
71637;SDS011;59485;43.542;-5.676;2022-11-15T05:56:45;8.63;;;2.00;;
71637;SDS011;59485;43.542;-5.676;2022-11-15T05:59:11;10.07;;;2.00;;
71637;SDS011;59485;43.542;-5.676;2022-11-15T06:01:40;9.23;;;2.58;;
71637;SDS011;59485;43.542;-5.676;2022-11-15T06:04:06;10.37;;;2.63;;
71637;SDS011;59485;43.542;-5.676;2022-11-15T06:06:31;14.07;;;3.45;;
71637;SDS011;59485;43.542;-5.676;2022-11-15T06:08:57;11.13;;;2.63;;
71637;SDS011;59485;43.542;-5.676;2022-11-15T06:11:22;15.17;;;3.13;;
71637;SDS011;59485;43.542;-5.676;2022-11-15T06:13:48;13.88;;;3.88;;
71637;SDS011;59485;43.542;-5.676;2022-11-15T06:16:13;23.17;;;3.73;;
71637;SDS011;59485;43.542;-5.676;2022-11-15T06:18:39;18.43;;;3.47;;
71637;SDS011;59485;43.542;-5.676;2022-11-15T06:21:05;21.83;;;3.45;;
71637;SDS011;59485;43.542;-5.676;2022-11-15T06:23:34;9.17;;;2.23;;
71637;SDS011;59485;43.542;-5.676;2022-11-15T06:26:00;12.63;;;2.03;;
71637;SDS011;59485;43.542;-5.676;2022-11-15T06:28:28;9.23;;;1.85;;
71637;SDS011;59485;43.542;-5.676;2022-11-15T06:30:54;9.95;;;1.70;;
71637;SDS011;59485;43.542;-5.676;2022-11-15T06:33:20;9.83;;;2.10;;
71637;SDS011;59485;43.542;-5.676;2022-11-15T06:35:45;11.60;;;1.65;;
71637;SDS011;59485;43.542;-5.676;2022-11-15T06:38:11;9.47;;;2.23;;
71637;SDS011;59485;43.542;-5.676;2022-11-15T06:40:37;8.33;;;1.77;;
71637;SDS011;59485;43.542;-5.676;2022-11-15T06:43:04;9.40;;;1.92;;
71637;SDS011;59485;43.542;-5.676;2022-11-15T06:45:30;7.72;;;2.58;;
71637;SDS011;59485;43.542;-5.676;2022-11-15T06:47:57;7.90;;;2.15;;
71637;SDS011;59485;43.542;-5.676;2022-11-15T06:50:22;12.68;;;3.25;;
71637;SDS011;59485;43.542;-5.676;2022-11-15T06:52:48;18.30;;;3.73;;
71637;SDS011;59485;43.542;-5.676;2022-11-15T06:55:14;9.40;;;2.13;;
71637;SDS011;59485;43.542;-5.676;2022-11-15T06:57:49;9.63;;;2.30;;
71637;SDS011;59485;43.542;-5.676;2022-11-15T07:00:16;6.00;;;1.55;;
71637;SDS011;59485;43.542;-5.676;2022-11-15T07:02:43;5.33;;;1.00;;
71637;SDS011;59485;43.542;-5.676;2022-11-15T07:05:09;7.50;;;1.38;;
71637;SDS011;59485;43.542;-5.676;2022-11-15T07:07:35;6.13;;;1.23;;
71637;SDS011;59485;43.542;-5.676;2022-11-15T07:10:00;9.43;;;1.87;;
71637;SDS011;59485;43.542;-5.676;2022-11-15T07:12:26;13.10;;;2.67;;
71637;SDS011;59485;43.542;-5.676;2022-11-15T07:14:51;12.33;;;2.33;;
71637;SDS011;59485;43.542;-5.676;2022-11-15T07:17:17;11.50;;;1.90;;
71637;SDS011;59485;43.542;-5.676;2022-11-15T07:19:42;5.63;;;0.50;;
71637;SDS011;59485;43.542;-5.676;2022-11-15T07:22:08;9.47;;;0.87;;
71637;SDS011;59485;43.542;-5.676;2022-11-15T07:24:33;27.40;;;2.33;;
71637;SDS011;59485;43.542;-5.676;2022-11-15T07:26:59;15.73;;;2.00;;
71637;SDS011;59485;43.542;-5.676;2022-11-15T07:29:24;19.80;;;2.10;;
71637;SDS011;59485;43.542;-5.676;2022-11-15T07:31:50;25.88;;;3.08;;
71637;SDS011;59485;43.542;-5.676;2022-11-15T07:34:15;28.67;;;3.63;;
71637;SDS011;59485;43.542;-5.676;2022-11-15T07:36:41;17.33;;;1.90;;
71637;SDS011;59485;43.542;-5.676;2022-11-15T07:39:06;16.17;;;1.77;;
71637;SDS011;59485;43.542;-5.676;2022-11-15T07:41:32;18.13;;;1.90;;
71637;SDS011;59485;43.542;-5.676;2022-11-15T07:43:57;12.87;;;0.90;;
71637;SDS011;59485;43.542;-5.676;2022-11-15T07:46:23;15.90;;;1.87;;
71637;SDS011;59485;43.542;-5.676;2022-11-15T07:48:48;23.23;;;1.60;;
71637;SDS011;59485;43.542;-5.676;2022-11-15T07:51:14;13.30;;;1.40;;
71637;SDS011;59485;43.542;-5.676;2022-11-15T07:53:44;16.38;;;2.13;;
71637;SDS011;59485;43.542;-5.676;2022-11-15T07:56:09;23.08;;;2.20;;
71637;SDS011;59485;43.542;-5.676;2022-11-15T07:58:35;16.58;;;2.08;;
71637;SDS011;59485;43.542;-5.676;2022-11-15T08:01:02;27.47;;;3.20;;
71637;SDS011;59485;43.542;-5.676;2022-11-15T08:03:29;18.10;;;2.67;;
71637;SDS011;59485;43.542;-5.676;2022-11-15T08:05:55;16.33;;;1.37;;
71637;SDS011;59485;43.542;-5.676;2022-11-15T08:08:21;22.15;;;2.13;;
71637;SDS011;59485;43.542;-5.676;2022-11-15T08:10:47;20.63;;;1.60;;
71637;SDS011;59485;43.542;-5.676;2022-11-15T08:13:13;20.80;;;2.20;;
71637;SDS011;59485;43.542;-5.676;2022-11-15T08:15:39;16.60;;;2.08;;
71637;SDS011;59485;43.542;-5.676;2022-11-15T08:18:09;26.40;;;2.27;;
71637;SDS011;59485;43.542;-5.676;2022-11-15T08:20:36;23.95;;;2.63;;
71637;SDS011;59485;43.542;-5.676;2022-11-15T08:23:03;24.80;;;2.03;;
71637;SDS011;59485;43.542;-5.676;2022-11-15T08:25:30;24.92;;;1.90;;
71637;SDS011;59485;43.542;-5.676;2022-11-15T08:27:59;27.05;;;2.15;;
71637;SDS011;59485;43.542;-5.676;2022-11-15T08:30:25;25.50;;;2.30;;
71637;SDS011;59485;43.542;-5.676;2022-11-15T08:32:52;17.80;;;2.47;;
71637;SDS011;59485;43.542;-5.676;2022-11-15T08:35:19;21.23;;;1.80;;
71637;SDS011;59485;43.542;-5.676;2022-11-15T08:37:45;23.35;;;2.65;;
71637;SDS011;59485;43.542;-5.676;2022-11-15T08:40:11;23.83;;;2.50;;
71637;SDS011;59485;43.542;-5.676;2022-11-15T08:42:38;18.23;;;2.30;;
71637;SDS011;59485;43.542;-5.676;2022-11-15T08:45:03;23.08;;;2.53;;
71637;SDS011;59485;43.542;-5.676;2022-11-15T08:47:29;23.98;;;2.63;;
71637;SDS011;59485;43.542;-5.676;2022-11-15T08:49:55;21.53;;;2.30;;
71637;SDS011;59485;43.542;-5.676;2022-11-15T08:52:21;21.07;;;3.93;;
71637;SDS011;59485;43.542;-5.676;2022-11-15T08:54:46;18.17;;;2.38;;
71637;SDS011;59485;43.542;-5.676;2022-11-15T08:57:12;19.33;;;2.45;;
71637;SDS011;59485;43.542;-5.676;2022-11-15T08:59:38;22.00;;;2.20;;
71637;SDS011;59485;43.542;-5.676;2022-11-15T09:02:04;22.75;;;1.98;;
71637;SDS011;59485;43.542;-5.676;2022-11-15T09:04:30;20.80;;;2.07;;
71637;SDS011;59485;43.542;-5.676;2022-11-15T09:06:56;20.77;;;2.13;;
71637;SDS011;59485;43.542;-5.676;2022-11-15T09:09:21;19.97;;;2.30;;
71637;SDS011;59485;43.542;-5.676;2022-11-15T09:11:47;21.33;;;2.05;;
71637;SDS011;59485;43.542;-5.676;2022-11-15T09:14:12;21.30;;;1.77;;
71637;SDS011;59485;43.542;-5.676;2022-11-15T09:16:39;17.75;;;1.92;;
71637;SDS011;59485;43.542;-5.676;2022-11-15T09:19:04;17.57;;;3.23;;
71637;SDS011;59485;43.542;-5.676;2022-11-15T09:21:30;16.63;;;1.90;;
71637;SDS011;59485;43.542;-5.676;2022-11-15T09:23:56;23.47;;;2.60;;
71637;SDS011;59485;43.542;-5.676;2022-11-15T09:26:21;20.35;;;2.30;;
71637;SDS011;59485;43.542;-5.676;2022-11-15T09:28:47;16.17;;;2.80;;
71637;SDS011;59485;43.542;-5.676;2022-11-15T09:31:13;16.30;;;2.00;;
71637;SDS011;59485;43.542;-5.676;2022-11-15T09:33:39;17.70;;;1.83;;
71637;SDS011;59485;43.542;-5.676;2022-11-15T09:36:06;14.98;;;2.20;;
71637;SDS011;59485;43.542;-5.676;2022-11-15T09:38:33;10.03;;;1.80;;
71637;SDS011;59485;43.542;-5.676;2022-11-15T09:41:13;14.15;;;2.28;;
71637;SDS011;59485;43.542;-5.676;2022-11-15T09:49:55;15.70;;;2.10;;
71637;SDS011;59485;43.542;-5.676;2022-11-15T09:52:24;17.60;;;2.60;;
71637;SDS011;59485;43.542;-5.676;2022-11-15T09:54:51;13.40;;;1.80;;
71637;SDS011;59485;43.542;-5.676;2022-11-15T09:57:21;15.25;;;2.42;;
71637;SDS011;59485;43.542;-5.676;2022-11-15T10:02:40;8.10;;;1.83;;
71637;SDS011;59485;43.542;-5.676;2022-11-15T10:05:11;14.83;;;1.30;;
71637;SDS011;59485;43.542;-5.676;2022-11-15T10:10:46;17.48;;;1.90;;
71637;SDS011;59485;43.542;-5.676;2022-11-15T10:13:25;10.57;;;1.20;;
71637;SDS011;59485;43.542;-5.676;2022-11-15T10:15:54;7.60;;;1.23;;
71637;SDS011;59485;43.542;-5.676;2022-11-15T10:21:46;10.25;;;1.20;;
71637;SDS011;59485;43.542;-5.676;2022-11-15T10:24:17;12.93;;;1.88;;
71637;SDS011;59485;43.542;-5.676;2022-11-15T10:26:48;14.15;;;1.60;;
71637;SDS011;59485;43.542;-5.676;2022-11-15T10:29:20;12.05;;;1.88;;
71637;SDS011;59485;43.542;-5.676;2022-11-15T10:31:47;17.20;;;2.10;;
71637;SDS011;59485;43.542;-5.676;2022-11-15T10:34:14;15.75;;;1.98;;
71637;SDS011;59485;43.542;-5.676;2022-11-15T10:37:00;13.80;;;2.33;;
71637;SDS011;59485;43.542;-5.676;2022-11-15T10:39:27;14.32;;;1.52;;
71637;SDS011;59485;43.542;-5.676;2022-11-15T10:41:53;9.50;;;1.30;;
71637;SDS011;59485;43.542;-5.676;2022-11-15T10:44:20;14.53;;;1.60;;
71637;SDS011;59485;43.542;-5.676;2022-11-15T10:46:50;11.93;;;1.55;;
71637;SDS011;59485;43.542;-5.676;2022-11-15T10:49:31;15.95;;;2.00;;
71637;SDS011;59485;43.542;-5.676;2022-11-15T10:52:12;10.77;;;1.95;;
71637;SDS011;59485;43.542;-5.676;2022-11-15T10:57:28;9.23;;;1.00;;
71637;SDS011;59485;43.542;-5.676;2022-11-15T11:00:04;8.52;;;1.52;;
71637;SDS011;59485;43.542;-5.676;2022-11-15T11:02:39;9.70;;;1.30;;
71637;SDS011;59485;43.542;-5.676;2022-11-15T11:05:30;8.00;;;2.20;;
71637;SDS011;59485;43.542;-5.676;2022-11-15T11:08:04;12.15;;;3.60;;
71637;SDS011;59485;43.542;-5.676;2022-11-15T11:10:57;17.50;;;3.70;;
71637;SDS011;59485;43.542;-5.676;2022-11-15T11:18:38;7.93;;;2.40;;
71637;SDS011;59485;43.542;-5.676;2022-11-15T11:24:42;10.30;;;1.90;;
71637;SDS011;59485;43.542;-5.676;2022-11-15T11:30:23;9.75;;;2.55;;
71637;SDS011;59485;43.542;-5.676;2022-11-15T11:33:05;11.10;;;1.45;;
71637;SDS011;59485;43.542;-5.676;2022-11-15T11:46:40;15.88;;;4.35;;
71637;SDS011;59485;43.542;-5.676;2022-11-15T11:49:21;8.70;;;2.10;;
71637;SDS011;59485;43.542;-5.676;2022-11-15T11:52:11;11.10;;;1.95;;
71637;SDS011;59485;43.542;-5.676;2022-11-15T12:00:24;10.18;;;1.92;;
71637;SDS011;59485;43.542;-5.676;2022-11-15T12:05:49;11.07;;;1.70;;
71637;SDS011;59485;43.542;-5.676;2022-11-15T12:11:56;6.67;;;1.10;;
71637;SDS011;59485;43.542;-5.676;2022-11-15T12:17:09;8.60;;;1.73;;
71637;SDS011;59485;43.542;-5.676;2022-11-15T12:19:36;10.68;;;1.40;;
71637;SDS011;59485;43.542;-5.676;2022-11-15T12:25:18;7.20;;;0.93;;
71637;SDS011;59485;43.542;-5.676;2022-11-15T12:30:38;12.98;;;2.70;;
71637;SDS011;59485;43.542;-5.676;2022-11-15T12:33:28;14.18;;;3.25;;
71637;SDS011;59485;43.542;-5.676;2022-11-15T12:36:03;12.02;;;2.88;;
71637;SDS011;59485;43.542;-5.676;2022-11-15T12:41:21;12.23;;;3.05;;
71637;SDS011;59485;43.542;-5.676;2022-11-15T12:43:54;13.32;;;3.28;;
71637;SDS011;59485;43.542;-5.676;2022-11-15T12:48:54;11.07;;;1.73;;
71637;SDS011;59485;43.542;-5.676;2022-11-15T12:52:07;8.53;;;1.33;;
71637;SDS011;59485;43.542;-5.676;2022-11-15T12:54:50;6.88;;;0.95;;
71637;SDS011;59485;43.542;-5.676;2022-11-15T12:59:56;5.37;;;0.57;;
71637;SDS011;59485;43.542;-5.676;2022-11-15T13:02:34;8.07;;;0.50;;
71637;SDS011;59485;43.542;-5.676;2022-11-15T13:08:00;7.65;;;0.85;;
71637;SDS011;59485;43.542;-5.676;2022-11-15T13:12:54;6.68;;;0.70;;
71637;SDS011;59485;43.542;-5.676;2022-11-15T13:15:43;7.47;;;0.80;;
71637;SDS011;59485;43.542;-5.676;2022-11-15T13:18:29;9.07;;;0.70;;
71637;SDS011;59485;43.542;-5.676;2022-11-15T13:21:03;4.10;;;0.73;;
71637;SDS011;59485;43.542;-5.676;2022-11-15T13:24:01;5.38;;;1.08;;
71637;SDS011;59485;43.542;-5.676;2022-11-15T13:26:27;8.77;;;1.23;;
71637;SDS011;59485;43.542;-5.676;2022-11-15T13:28:53;6.03;;;0.90;;
71637;SDS011;59485;43.542;-5.676;2022-11-15T13:34:02;6.82;;;0.82;;
71637;SDS011;59485;43.542;-5.676;2022-11-15T13:36:41;5.83;;;0.73;;
71637;SDS011;59485;43.542;-5.676;2022-11-15T13:39:28;8.57;;;0.47;;
71637;SDS011;59485;43.542;-5.676;2022-11-15T13:41:52;7.75;;;1.50;;
71637;SDS011;59485;43.542;-5.676;2022-11-15T13:44:20;7.00;;;1.10;;
71637;SDS011;59485;43.542;-5.676;2022-11-15T13:46:47;6.00;;;0.82;;
71637;SDS011;59485;43.542;-5.676;2022-11-15T13:49:13;8.57;;;1.20;;
71637;SDS011;59485;43.542;-5.676;2022-11-15T13:51:43;7.57;;;1.57;;
71637;SDS011;59485;43.542;-5.676;2022-11-15T13:56:43;4.65;;;0.85;;
71637;SDS011;59485;43.542;-5.676;2022-11-15T14:01:44;8.15;;;1.20;;
71637;SDS011;59485;43.542;-5.676;2022-11-15T14:04:11;6.50;;;0.80;;
71637;SDS011;59485;43.542;-5.676;2022-11-15T14:06:47;8.88;;;1.00;;
71637;SDS011;59485;43.542;-5.676;2022-11-15T14:09:18;8.82;;;1.10;;
71637;SDS011;59485;43.542;-5.676;2022-11-15T14:11:53;4.57;;;0.73;;
71637;SDS011;59485;43.542;-5.676;2022-11-15T14:14:21;9.00;;;1.10;;
71637;SDS011;59485;43.542;-5.676;2022-11-15T14:16:52;6.63;;;0.82;;
71637;SDS011;59485;43.542;-5.676;2022-11-15T14:24:35;7.40;;;1.20;;
71637;SDS011;59485;43.542;-5.676;2022-11-15T14:29:47;8.85;;;1.10;;
71637;SDS011;59485;43.542;-5.676;2022-11-15T14:32:21;7.63;;;1.10;;
71637;SDS011;59485;43.542;-5.676;2022-11-15T14:34:55;5.45;;;1.17;;
71637;SDS011;59485;43.542;-5.676;2022-11-15T14:37:26;6.07;;;0.67;;
71637;SDS011;59485;43.542;-5.676;2022-11-15T14:39:53;6.90;;;0.90;;
71637;SDS011;59485;43.542;-5.676;2022-11-15T14:42:20;7.38;;;0.90;;
71637;SDS011;59485;43.542;-5.676;2022-11-15T14:44:46;7.35;;;1.73;;
71637;SDS011;59485;43.542;-5.676;2022-11-15T14:47:12;7.00;;;1.08;;
71637;SDS011;59485;43.542;-5.676;2022-11-15T14:49:38;7.47;;;1.00;;
71637;SDS011;59485;43.542;-5.676;2022-11-15T14:52:22;6.90;;;0.95;;
71637;SDS011;59485;43.542;-5.676;2022-11-15T14:54:59;6.68;;;1.08;;
71637;SDS011;59485;43.542;-5.676;2022-11-15T14:57:28;7.20;;;1.15;;
71637;SDS011;59485;43.542;-5.676;2022-11-15T14:59:54;11.17;;;1.27;;
71637;SDS011;59485;43.542;-5.676;2022-11-15T15:02:24;9.10;;;0.98;;
71637;SDS011;59485;43.542;-5.676;2022-11-15T15:04:51;5.03;;;0.80;;
71637;SDS011;59485;43.542;-5.676;2022-11-15T15:07:18;8.88;;;1.60;;
71637;SDS011;59485;43.542;-5.676;2022-11-15T15:09:44;11.68;;;2.03;;
71637;SDS011;59485;43.542;-5.676;2022-11-15T15:12:20;7.72;;;0.80;;
71637;SDS011;59485;43.542;-5.676;2022-11-15T15:14:48;6.93;;;1.45;;
71637;SDS011;59485;43.542;-5.676;2022-11-15T15:17:15;10.13;;;1.40;;
71637;SDS011;59485;43.542;-5.676;2022-11-15T15:19:41;7.53;;;1.30;;
71637;SDS011;59485;43.542;-5.676;2022-11-15T15:22:11;7.25;;;1.38;;
71637;SDS011;59485;43.542;-5.676;2022-11-15T15:24:39;6.93;;;0.77;;
71637;SDS011;59485;43.542;-5.676;2022-11-15T15:27:05;8.75;;;0.90;;
71637;SDS011;59485;43.542;-5.676;2022-11-15T15:29:30;14.50;;;1.20;;
71637;SDS011;59485;43.542;-5.676;2022-11-15T15:31:56;16.57;;;1.70;;
71637;SDS011;59485;43.542;-5.676;2022-11-15T15:34:21;16.57;;;2.23;;
71637;SDS011;59485;43.542;-5.676;2022-11-15T15:36:47;16.60;;;1.90;;
71637;SDS011;59485;43.542;-5.676;2022-11-15T15:39:12;11.65;;;1.95;;
71637;SDS011;59485;43.542;-5.676;2022-11-15T15:41:38;14.50;;;1.90;;
71637;SDS011;59485;43.542;-5.676;2022-11-15T15:44:04;18.90;;;2.00;;
71637;SDS011;59485;43.542;-5.676;2022-11-15T15:46:29;15.60;;;2.33;;
71637;SDS011;59485;43.542;-5.676;2022-11-15T15:48:55;15.07;;;1.20;;
71637;SDS011;59485;43.542;-5.676;2022-11-15T15:51:20;11.47;;;1.23;;
71637;SDS011;59485;43.542;-5.676;2022-11-15T15:53:46;18.45;;;2.38;;
71637;SDS011;59485;43.542;-5.676;2022-11-15T15:56:12;15.40;;;1.33;;
71637;SDS011;59485;43.542;-5.676;2022-11-15T15:58:38;8.07;;;1.38;;
71637;SDS011;59485;43.542;-5.676;2022-11-15T16:01:04;11.67;;;1.60;;
71637;SDS011;59485;43.542;-5.676;2022-11-15T16:03:29;13.77;;;2.43;;
71637;SDS011;59485;43.542;-5.676;2022-11-15T16:05:55;12.97;;;1.30;;
71637;SDS011;59485;43.542;-5.676;2022-11-15T16:08:21;13.40;;;1.87;;
71637;SDS011;59485;43.542;-5.676;2022-11-15T16:10:48;14.95;;;1.55;;
71637;SDS011;59485;43.542;-5.676;2022-11-15T16:13:14;10.23;;;1.90;;
71637;SDS011;59485;43.542;-5.676;2022-11-15T16:15:39;13.40;;;1.97;;
71637;SDS011;59485;43.542;-5.676;2022-11-15T16:18:08;11.45;;;1.52;;
71637;SDS011;59485;43.542;-5.676;2022-11-15T16:20:40;9.60;;;1.33;;
71637;SDS011;59485;43.542;-5.676;2022-11-15T16:23:15;12.77;;;1.65;;
71637;SDS011;59485;43.542;-5.676;2022-11-15T16:25:49;11.05;;;1.70;;
71637;SDS011;59485;43.542;-5.676;2022-11-15T16:28:17;11.53;;;1.23;;
71637;SDS011;59485;43.542;-5.676;2022-11-15T16:31:01;13.70;;;1.95;;
71637;SDS011;59485;43.542;-5.676;2022-11-15T16:33:31;10.80;;;1.42;;
71637;SDS011;59485;43.542;-5.676;2022-11-15T16:35:57;8.95;;;1.25;;